sensor_id;sensor_type;location;lat;lon;timestamp;pressure;altitude;pressure_sealevel;temperature;humidity
46642;BME280;32370;41.864;-88.124;2022-11-20T00:00:28;99418.70;;;-6.87;53.67
46642;BME280;32370;41.864;-88.124;2022-11-20T00:02:56;99417.41;;;-7.84;54.55
46642;BME280;32370;41.864;-88.124;2022-11-20T00:05:24;99429.33;;;-7.65;53.87
46642;BME280;32370;41.864;-88.124;2022-11-20T00:07:52;99435.32;;;-7.68;53.71
46642;BME280;32370;41.864;-88.124;2022-11-20T00:10:21;99436.41;;;-7.44;53.97
46642;BME280;32370;41.864;-88.124;2022-11-20T00:12:49;99437.84;;;-7.65;54.30
46642;BME280;32370;41.864;-88.124;2022-11-20T00:15:17;99447.70;;;-7.69;54.16
46642;BME280;32370;41.864;-88.124;2022-11-20T00:17:45;99448.10;;;-7.49;54.69
46642;BME280;32370;41.864;-88.124;2022-11-20T00:20:14;99452.01;;;-7.57;55.35
46642;BME280;32370;41.864;-88.124;2022-11-20T00:22:41;99456.43;;;-7.64;54.81
46642;BME280;32370;41.864;-88.124;2022-11-20T00:25:10;99467.66;;;-7.59;55.64
46642;BME280;32370;41.864;-88.124;2022-11-20T00:27:38;99472.90;;;-7.94;55.31
46642;BME280;32370;41.864;-88.124;2022-11-20T00:30:07;99471.50;;;-7.97;55.90
46642;BME280;32370;41.864;-88.124;2022-11-20T00:32:35;99474.12;;;-7.84;55.96
46642;BME280;32370;41.864;-88.124;2022-11-20T00:35:03;99480.68;;;-8.10;55.72
46642;BME280;32370;41.864;-88.124;2022-11-20T00:37:31;99483.21;;;-7.91;55.12
46642;BME280;32370;41.864;-88.124;2022-11-20T00:39:59;99486.55;;;-8.24;57.05
46642;BME280;32370;41.864;-88.124;2022-11-20T00:42:28;99494.86;;;-8.10;56.39
46642;BME280;32370;41.864;-88.124;2022-11-20T00:44:56;99496.63;;;-8.13;55.90
46642;BME280;32370;41.864;-88.124;2022-11-20T00:47:24;99497.47;;;-8.08;55.34
46642;BME280;32370;41.864;-88.124;2022-11-20T00:49:52;99496.46;;;-7.97;55.05
46642;BME280;32370;41.864;-88.124;2022-11-20T00:52:20;99504.90;;;-8.30;55.91
46642;BME280;32370;41.864;-88.124;2022-11-20T00:54:48;99503.69;;;-7.78;54.91
46642;BME280;32370;41.864;-88.124;2022-11-20T00:57:17;99508.99;;;-7.92;55.56
46642;BME280;32370;41.864;-88.124;2022-11-20T00:59:45;99512.23;;;-7.96;54.90
46642;BME280;32370;41.864;-88.124;2022-11-20T01:02:13;99522.35;;;-8.27;55.67
46642;BME280;32370;41.864;-88.124;2022-11-20T01:04:41;99527.35;;;-8.61;56.41
46642;BME280;32370;41.864;-88.124;2022-11-20T01:07:09;99531.24;;;-8.59;55.28
46642;BME280;32370;41.864;-88.124;2022-11-20T01:09:37;99535.50;;;-8.68;55.57
46642;BME280;32370;41.864;-88.124;2022-11-20T01:12:06;99538.91;;;-8.22;56.24
46642;BME280;32370;41.864;-88.124;2022-11-20T01:14:35;99539.41;;;-8.27;55.72
46642;BME280;32370;41.864;-88.124;2022-11-20T01:17:03;99543.51;;;-8.55;55.53
46642;BME280;32370;41.864;-88.124;2022-11-20T01:19:31;99544.00;;;-8.61;55.24
46642;BME280;32370;41.864;-88.124;2022-11-20T01:21:59;99545.49;;;-8.37;55.30
46642;BME280;32370;41.864;-88.124;2022-11-20T01:24:27;99550.27;;;-8.38;55.77
46642;BME280;32370;41.864;-88.124;2022-11-20T01:26:55;99556.40;;;-8.49;56.42
46642;BME280;32370;41.864;-88.124;2022-11-20T01:29:25;99557.45;;;-8.45;55.81
46642;BME280;32370;41.864;-88.124;2022-11-20T01:31:53;99560.96;;;-8.54;56.02
46642;BME280;32370;41.864;-88.124;2022-11-20T01:34:22;99563.81;;;-8.58;56.18
46642;BME280;32370;41.864;-88.124;2022-11-20T01:36:51;99566.11;;;-8.35;56.49
46642;BME280;32370;41.864;-88.124;2022-11-20T01:39:21;99574.13;;;-8.40;56.60
46642;BME280;32370;41.864;-88.124;2022-11-20T01:41:52;99569.57;;;-8.69;56.57
46642;BME280;32370;41.864;-88.124;2022-11-20T01:44:22;99572.85;;;-8.81;57.67
46642;BME280;32370;41.864;-88.124;2022-11-20T01:47:13;99568.71;;;-8.54;56.41
46642;BME280;32370;41.864;-88.124;2022-11-20T01:49:44;99578.32;;;-8.63;57.32
46642;BME280;32370;41.864;-88.124;2022-11-20T01:52:16;99587.38;;;-8.81;57.96
46642;BME280;32370;41.864;-88.124;2022-11-20T01:54:50;99591.63;;;-8.91;56.92
46642;BME280;32370;41.864;-88.124;2022-11-20T01:57:22;99601.44;;;-9.01;57.90
46642;BME280;32370;41.864;-88.124;2022-11-20T01:59:53;99601.35;;;-8.90;57.67
46642;BME280;32370;41.864;-88.124;2022-11-20T02:02:24;99609.67;;;-9.08;57.85
46642;BME280;32370;41.864;-88.124;2022-11-20T02:04:54;99611.56;;;-9.10;57.93
46642;BME280;32370;41.864;-88.124;2022-11-20T02:07:24;99614.20;;;-9.67;57.84
46642;BME280;32370;41.864;-88.124;2022-11-20T02:09:52;99621.03;;;-9.25;58.08
46642;BME280;32370;41.864;-88.124;2022-11-20T02:12:20;99624.51;;;-9.35;58.52
46642;BME280;32370;41.864;-88.124;2022-11-20T02:14:48;99626.96;;;-9.36;58.32
46642;BME280;32370;41.864;-88.124;2022-11-20T02:17:17;99634.25;;;-9.42;58.70
46642;BME280;32370;41.864;-88.124;2022-11-20T02:19:45;99635.57;;;-9.28;59.27
46642;BME280;32370;41.864;-88.124;2022-11-20T02:22:17;99635.61;;;-9.54;59.99
46642;BME280;32370;41.864;-88.124;2022-11-20T02:24:48;99637.41;;;-9.39;59.93
46642;BME280;32370;41.864;-88.124;2022-11-20T02:27:18;99634.39;;;-9.44;59.79
46642;BME280;32370;41.864;-88.124;2022-11-20T02:29:50;99638.05;;;-9.31;60.77
46642;BME280;32370;41.864;-88.124;2022-11-20T02:32:19;99646.06;;;-9.79;60.96
46642;BME280;32370;41.864;-88.124;2022-11-20T02:34:48;99651.27;;;-9.61;62.46
46642;BME280;32370;41.864;-88.124;2022-11-20T02:37:17;99650.58;;;-9.86;61.77
46642;BME280;32370;41.864;-88.124;2022-11-20T02:39:47;99658.18;;;-9.93;62.68
46642;BME280;32370;41.864;-88.124;2022-11-20T02:42:15;99665.79;;;-9.76;62.12
46642;BME280;32370;41.864;-88.124;2022-11-20T02:44:44;99667.36;;;-9.61;62.30
46642;BME280;32370;41.864;-88.124;2022-11-20T02:47:12;99672.21;;;-9.59;62.40
46642;BME280;32370;41.864;-88.124;2022-11-20T02:49:40;99674.73;;;-10.09;62.61
46642;BME280;32370;41.864;-88.124;2022-11-20T02:52:08;99676.41;;;-10.19;63.00
46642;BME280;32370;41.864;-88.124;2022-11-20T02:54:36;99682.83;;;-10.10;63.51
46642;BME280;32370;41.864;-88.124;2022-11-20T02:57:04;99688.53;;;-10.31;64.31
46642;BME280;32370;41.864;-88.124;2022-11-20T02:59:33;99692.42;;;-10.33;63.51
46642;BME280;32370;41.864;-88.124;2022-11-20T03:02:01;99696.83;;;-10.47;63.40
46642;BME280;32370;41.864;-88.124;2022-11-20T03:04:29;99698.45;;;-10.32;63.67
46642;BME280;32370;41.864;-88.124;2022-11-20T03:06:57;99708.96;;;-10.12;63.82
46642;BME280;32370;41.864;-88.124;2022-11-20T03:09:26;99712.37;;;-10.47;64.60
46642;BME280;32370;41.864;-88.124;2022-11-20T03:11:54;99717.59;;;-10.50;63.93
46642;BME280;32370;41.864;-88.124;2022-11-20T03:14:22;99723.02;;;-10.57;64.10
46642;BME280;32370;41.864;-88.124;2022-11-20T03:16:50;99724.84;;;-10.41;64.68
46642;BME280;32370;41.864;-88.124;2022-11-20T03:19:18;99729.28;;;-10.32;64.94
46642;BME280;32370;41.864;-88.124;2022-11-20T03:21:47;99733.91;;;-10.40;64.57
46642;BME280;32370;41.864;-88.124;2022-11-20T03:24:15;99735.69;;;-10.62;65.13
46642;BME280;32370;41.864;-88.124;2022-11-20T03:26:43;99743.62;;;-10.64;65.30
46642;BME280;32370;41.864;-88.124;2022-11-20T03:29:11;99749.62;;;-10.78;65.76
46642;BME280;32370;41.864;-88.124;2022-11-20T03:31:40;99757.34;;;-10.68;65.45
46642;BME280;32370;41.864;-88.124;2022-11-20T03:34:10;99756.37;;;-10.72;65.69
46642;BME280;32370;41.864;-88.124;2022-11-20T03:36:40;99763.02;;;-10.70;64.96
46642;BME280;32370;41.864;-88.124;2022-11-20T03:39:08;99766.65;;;-10.69;65.08
46642;BME280;32370;41.864;-88.124;2022-11-20T03:41:38;99768.55;;;-10.67;65.71
46642;BME280;32370;41.864;-88.124;2022-11-20T03:44:09;99775.41;;;-10.83;65.19
46642;BME280;32370;41.864;-88.124;2022-11-20T03:46:37;99774.71;;;-10.97;65.85
46642;BME280;32370;41.864;-88.124;2022-11-20T03:49:05;99777.18;;;-10.93;65.10
46642;BME280;32370;41.864;-88.124;2022-11-20T03:51:34;99782.13;;;-10.80;65.94
46642;BME280;32370;41.864;-88.124;2022-11-20T03:54:06;99781.27;;;-11.07;65.83
46642;BME280;32370;41.864;-88.124;2022-11-20T03:56:35;99781.72;;;-11.17;66.37
46642;BME280;32370;41.864;-88.124;2022-11-20T03:59:04;99781.15;;;-10.94;66.35
46642;BME280;32370;41.864;-88.124;2022-11-20T04:01:33;99783.01;;;-10.93;66.67
46642;BME280;32370;41.864;-88.124;2022-11-20T04:04:02;99783.23;;;-10.99;66.60
46642;BME280;32370;41.864;-88.124;2022-11-20T04:06:33;99781.92;;;-11.20;66.77
46642;BME280;32370;41.864;-88.124;2022-11-20T04:09:01;99784.00;;;-11.14;67.00
46642;BME280;32370;41.864;-88.124;2022-11-20T04:11:31;99784.69;;;-11.15;67.11
46642;BME280;32370;41.864;-88.124;2022-11-20T04:14:01;99788.44;;;-11.06;67.34
46642;BME280;32370;41.864;-88.124;2022-11-20T04:16:31;99791.59;;;-11.15;67.24
46642;BME280;32370;41.864;-88.124;2022-11-20T04:19:01;99798.02;;;-11.07;67.24
46642;BME280;32370;41.864;-88.124;2022-11-20T04:21:29;99798.72;;;-11.27;67.72
46642;BME280;32370;41.864;-88.124;2022-11-20T04:23:58;99805.66;;;-11.07;67.62
46642;BME280;32370;41.864;-88.124;2022-11-20T04:26:27;99808.56;;;-11.36;67.99
46642;BME280;32370;41.864;-88.124;2022-11-20T04:28:55;99805.36;;;-11.35;67.59
46642;BME280;32370;41.864;-88.124;2022-11-20T04:31:27;99809.90;;;-11.44;68.33
46642;BME280;32370;41.864;-88.124;2022-11-20T04:33:55;99813.97;;;-11.25;68.60
46642;BME280;32370;41.864;-88.124;2022-11-20T04:36:25;99812.59;;;-11.42;68.48
46642;BME280;32370;41.864;-88.124;2022-11-20T04:38:54;99812.57;;;-11.46;68.97
46642;BME280;32370;41.864;-88.124;2022-11-20T04:41:24;99816.97;;;-11.29;68.21
46642;BME280;32370;41.864;-88.124;2022-11-20T04:43:54;99823.30;;;-11.34;68.70
46642;BME280;32370;41.864;-88.124;2022-11-20T04:46:22;99824.92;;;-11.46;68.75
46642;BME280;32370;41.864;-88.124;2022-11-20T04:48:51;99827.22;;;-11.50;69.01
46642;BME280;32370;41.864;-88.124;2022-11-20T04:51:19;99825.59;;;-11.47;69.09
46642;BME280;32370;41.864;-88.124;2022-11-20T04:53:46;99828.66;;;-11.74;68.70
46642;BME280;32370;41.864;-88.124;2022-11-20T04:56:14;99834.11;;;-11.61;69.01
46642;BME280;32370;41.864;-88.124;2022-11-20T04:58:43;99840.40;;;-11.67;69.18
46642;BME280;32370;41.864;-88.124;2022-11-20T05:01:12;99840.77;;;-11.67;69.25
46642;BME280;32370;41.864;-88.124;2022-11-20T05:03:41;99846.93;;;-11.50;68.99
46642;BME280;32370;41.864;-88.124;2022-11-20T05:06:10;99841.69;;;-11.32;69.34
46642;BME280;32370;41.864;-88.124;2022-11-20T05:08:39;99845.00;;;-11.81;69.52
46642;BME280;32370;41.864;-88.124;2022-11-20T05:11:08;99852.03;;;-11.78;69.55
46642;BME280;32370;41.864;-88.124;2022-11-20T05:13:37;99853.86;;;-11.84;69.52
46642;BME280;32370;41.864;-88.124;2022-11-20T05:16:06;99850.48;;;-11.88;69.61
46642;BME280;32370;41.864;-88.124;2022-11-20T05:18:35;99852.08;;;-11.88;69.42
46642;BME280;32370;41.864;-88.124;2022-11-20T05:21:04;99856.00;;;-11.98;70.41
46642;BME280;32370;41.864;-88.124;2022-11-20T05:23:33;99852.13;;;-11.99;70.28
46642;BME280;32370;41.864;-88.124;2022-11-20T05:26:01;99851.13;;;-12.03;70.04
46642;BME280;32370;41.864;-88.124;2022-11-20T05:28:31;99856.59;;;-12.08;70.10
46642;BME280;32370;41.864;-88.124;2022-11-20T05:31:05;99863.98;;;-11.63;70.61
46642;BME280;32370;41.864;-88.124;2022-11-20T05:33:33;99869.34;;;-12.14;71.02
46642;BME280;32370;41.864;-88.124;2022-11-20T05:36:03;99875.14;;;-12.15;70.78
46642;BME280;32370;41.864;-88.124;2022-11-20T05:38:31;99877.66;;;-11.92;70.96
46642;BME280;32370;41.864;-88.124;2022-11-20T05:41:07;99883.58;;;-12.12;70.41
46642;BME280;32370;41.864;-88.124;2022-11-20T05:43:36;99887.20;;;-12.19;70.83
46642;BME280;32370;41.864;-88.124;2022-11-20T05:46:07;99886.32;;;-12.04;71.08
46642;BME280;32370;41.864;-88.124;2022-11-20T05:48:37;99890.53;;;-12.11;70.76
46642;BME280;32370;41.864;-88.124;2022-11-20T05:51:08;99892.32;;;-12.46;71.24
46642;BME280;32370;41.864;-88.124;2022-11-20T05:53:37;99888.49;;;-12.21;71.32
46642;BME280;32370;41.864;-88.124;2022-11-20T05:56:07;99889.98;;;-12.47;70.77
46642;BME280;32370;41.864;-88.124;2022-11-20T05:58:35;99886.83;;;-12.35;71.02
46642;BME280;32370;41.864;-88.124;2022-11-20T06:01:05;99885.88;;;-12.22;71.45
46642;BME280;32370;41.864;-88.124;2022-11-20T06:03:33;99889.80;;;-12.14;70.95
46642;BME280;32370;41.864;-88.124;2022-11-20T06:06:03;99892.27;;;-12.22;71.16
46642;BME280;32370;41.864;-88.124;2022-11-20T06:08:31;99888.29;;;-12.39;71.46
46642;BME280;32370;41.864;-88.124;2022-11-20T06:11:04;99886.49;;;-12.32;71.35
46642;BME280;32370;41.864;-88.124;2022-11-20T06:13:32;99892.43;;;-12.50;71.64
46642;BME280;32370;41.864;-88.124;2022-11-20T06:16:00;99900.86;;;-12.43;71.89
46642;BME280;32370;41.864;-88.124;2022-11-20T06:18:28;99901.99;;;-12.21;71.62
46642;BME280;32370;41.864;-88.124;2022-11-20T06:21:00;99900.53;;;-12.41;72.05
46642;BME280;32370;41.864;-88.124;2022-11-20T06:23:29;99901.26;;;-12.56;71.69
46642;BME280;32370;41.864;-88.124;2022-11-20T06:26:00;99901.71;;;-12.67;71.50
46642;BME280;32370;41.864;-88.124;2022-11-20T06:28:29;99903.16;;;-12.72;71.67
46642;BME280;32370;41.864;-88.124;2022-11-20T06:30:56;99902.33;;;-12.79;71.90
46642;BME280;32370;41.864;-88.124;2022-11-20T06:33:24;99898.88;;;-12.65;72.51
46642;BME280;32370;41.864;-88.124;2022-11-20T06:35:55;99903.05;;;-12.56;72.11
46642;BME280;32370;41.864;-88.124;2022-11-20T06:38:23;99908.10;;;-12.53;71.77
46642;BME280;32370;41.864;-88.124;2022-11-20T06:40:51;99901.06;;;-12.62;71.96
46642;BME280;32370;41.864;-88.124;2022-11-20T06:43:19;99904.42;;;-12.27;71.89
46642;BME280;32370;41.864;-88.124;2022-11-20T06:45:52;99908.05;;;-12.41;70.78
46642;BME280;32370;41.864;-88.124;2022-11-20T06:48:21;99913.39;;;-12.40;71.00
46642;BME280;32370;41.864;-88.124;2022-11-20T06:50:49;99914.51;;;-12.61;71.41
46642;BME280;32370;41.864;-88.124;2022-11-20T06:53:18;99922.14;;;-12.65;71.05
46642;BME280;32370;41.864;-88.124;2022-11-20T06:55:47;99924.81;;;-12.65;71.34
46642;BME280;32370;41.864;-88.124;2022-11-20T06:58:16;99919.81;;;-12.78;71.83
46642;BME280;32370;41.864;-88.124;2022-11-20T07:00:44;99921.68;;;-12.89;72.17
46642;BME280;32370;41.864;-88.124;2022-11-20T07:03:13;99920.55;;;-13.06;72.05
46642;BME280;32370;41.864;-88.124;2022-11-20T07:05:40;99916.33;;;-12.86;72.13
46642;BME280;32370;41.864;-88.124;2022-11-20T07:08:09;99926.29;;;-12.57;72.35
46642;BME280;32370;41.864;-88.124;2022-11-20T07:10:36;99924.56;;;-12.82;72.16
46642;BME280;32370;41.864;-88.124;2022-11-20T07:13:05;99925.17;;;-12.72;72.14
46642;BME280;32370;41.864;-88.124;2022-11-20T07:15:33;99927.84;;;-12.97;72.24
46642;BME280;32370;41.864;-88.124;2022-11-20T07:18:01;99930.36;;;-12.95;71.92
46642;BME280;32370;41.864;-88.124;2022-11-20T07:20:29;99930.15;;;-12.78;72.23
46642;BME280;32370;41.864;-88.124;2022-11-20T07:22:58;99927.72;;;-12.52;72.33
46642;BME280;32370;41.864;-88.124;2022-11-20T07:25:27;99932.83;;;-12.69;71.95
46642;BME280;32370;41.864;-88.124;2022-11-20T07:27:57;99936.01;;;-13.11;72.46
46642;BME280;32370;41.864;-88.124;2022-11-20T07:30:25;99939.38;;;-12.73;72.41
46642;BME280;32370;41.864;-88.124;2022-11-20T07:32:54;99944.31;;;-12.67;71.97
46642;BME280;32370;41.864;-88.124;2022-11-20T07:35:23;99944.64;;;-13.05;72.16
46642;BME280;32370;41.864;-88.124;2022-11-20T07:37:51;99948.06;;;-12.94;72.59
46642;BME280;32370;41.864;-88.124;2022-11-20T07:40:19;99950.13;;;-13.14;72.69
46642;BME280;32370;41.864;-88.124;2022-11-20T07:42:48;99953.92;;;-12.97;72.32
46642;BME280;32370;41.864;-88.124;2022-11-20T07:45:17;99952.41;;;-12.88;72.66
46642;BME280;32370;41.864;-88.124;2022-11-20T07:47:45;99952.75;;;-13.13;72.86
46642;BME280;32370;41.864;-88.124;2022-11-20T07:50:13;99950.51;;;-13.30;72.94
46642;BME280;32370;41.864;-88.124;2022-11-20T07:52:41;99953.27;;;-13.31;72.73
46642;BME280;32370;41.864;-88.124;2022-11-20T07:55:10;99952.78;;;-13.30;72.93
46642;BME280;32370;41.864;-88.124;2022-11-20T07:57:39;99961.49;;;-13.35;72.34
46642;BME280;32370;41.864;-88.124;2022-11-20T08:00:09;99964.20;;;-12.98;72.03
46642;BME280;32370;41.864;-88.124;2022-11-20T08:02:38;99962.85;;;-13.04;71.73
46642;BME280;32370;41.864;-88.124;2022-11-20T08:05:07;99966.33;;;-13.24;72.30
46642;BME280;32370;41.864;-88.124;2022-11-20T08:07:37;99968.02;;;-13.11;71.82
46642;BME280;32370;41.864;-88.124;2022-11-20T08:10:06;99963.60;;;-13.24;71.81
46642;BME280;32370;41.864;-88.124;2022-11-20T08:12:34;99965.96;;;-13.16;72.29
46642;BME280;32370;41.864;-88.124;2022-11-20T08:15:03;99963.24;;;-13.23;72.18
46642;BME280;32370;41.864;-88.124;2022-11-20T08:17:31;99969.68;;;-13.05;72.07
46642;BME280;32370;41.864;-88.124;2022-11-20T08:19:59;99975.68;;;-13.28;71.95
46642;BME280;32370;41.864;-88.124;2022-11-20T08:22:26;99974.30;;;-13.26;71.66
46642;BME280;32370;41.864;-88.124;2022-11-20T08:24:55;99980.47;;;-12.97;71.01
46642;BME280;32370;41.864;-88.124;2022-11-20T08:27:23;99989.64;;;-12.99;70.53
46642;BME280;32370;41.864;-88.124;2022-11-20T08:29:51;99995.53;;;-13.33;70.73
46642;BME280;32370;41.864;-88.124;2022-11-20T08:32:19;99992.68;;;-13.05;70.38
46642;BME280;32370;41.864;-88.124;2022-11-20T08:34:48;99993.87;;;-13.11;70.65
46642;BME280;32370;41.864;-88.124;2022-11-20T08:37:15;99996.07;;;-13.36;70.41
46642;BME280;32370;41.864;-88.124;2022-11-20T08:39:43;99994.22;;;-13.04;70.57
46642;BME280;32370;41.864;-88.124;2022-11-20T08:42:12;99994.54;;;-12.92;70.68
46642;BME280;32370;41.864;-88.124;2022-11-20T08:44:40;99998.20;;;-13.02;70.78
46642;BME280;32370;41.864;-88.124;2022-11-20T08:47:08;100003.64;;;-13.15;70.63
46642;BME280;32370;41.864;-88.124;2022-11-20T08:49:35;100004.31;;;-13.57;71.45
46642;BME280;32370;41.864;-88.124;2022-11-20T08:52:03;100008.14;;;-13.47;71.77
46642;BME280;32370;41.864;-88.124;2022-11-20T08:54:31;100000.62;;;-13.66;72.06
46642;BME280;32370;41.864;-88.124;2022-11-20T08:57:00;100002.73;;;-13.25;72.02
46642;BME280;32370;41.864;-88.124;2022-11-20T08:59:28;100006.19;;;-13.37;71.80
46642;BME280;32370;41.864;-88.124;2022-11-20T09:01:56;100012.96;;;-13.07;71.02
46642;BME280;32370;41.864;-88.124;2022-11-20T09:04:24;100014.74;;;-12.99;70.75
46642;BME280;32370;41.864;-88.124;2022-11-20T09:06:52;100016.30;;;-12.89;70.10
46642;BME280;32370;41.864;-88.124;2022-11-20T09:09:20;100022.59;;;-12.79;70.45
46642;BME280;32370;41.864;-88.124;2022-11-20T09:11:48;100019.74;;;-12.89;70.79
46642;BME280;32370;41.864;-88.124;2022-11-20T09:14:17;100014.91;;;-13.54;71.90
46642;BME280;32370;41.864;-88.124;2022-11-20T09:16:45;100015.19;;;-13.71;72.44
46642;BME280;32370;41.864;-88.124;2022-11-20T09:19:13;100015.60;;;-13.87;73.40
46642;BME280;32370;41.864;-88.124;2022-11-20T09:21:41;100016.67;;;-13.81;72.81
46642;BME280;32370;41.864;-88.124;2022-11-20T09:24:09;100018.53;;;-13.66;72.90
46642;BME280;32370;41.864;-88.124;2022-11-20T09:26:37;100017.83;;;-13.78;73.89
46642;BME280;32370;41.864;-88.124;2022-11-20T09:29:04;100023.17;;;-13.70;73.53
46642;BME280;32370;41.864;-88.124;2022-11-20T09:31:33;100027.80;;;-13.85;74.22
46642;BME280;32370;41.864;-88.124;2022-11-20T09:34:01;100022.91;;;-13.31;74.04
46642;BME280;32370;41.864;-88.124;2022-11-20T09:36:29;100033.72;;;-13.96;74.44
46642;BME280;32370;41.864;-88.124;2022-11-20T09:38:57;100036.82;;;-13.86;74.22
46642;BME280;32370;41.864;-88.124;2022-11-20T09:41:36;100026.20;;;-13.61;74.08
46642;BME280;32370;41.864;-88.124;2022-11-20T09:44:33;100024.25;;;-13.33;73.69
46642;BME280;32370;41.864;-88.124;2022-11-20T09:47:07;100022.68;;;-13.76;73.94
46642;BME280;32370;41.864;-88.124;2022-11-20T09:49:49;100026.23;;;-13.48;74.07
46642;BME280;32370;41.864;-88.124;2022-11-20T09:52:30;100027.22;;;-13.50;73.52
46642;BME280;32370;41.864;-88.124;2022-11-20T09:55:02;100027.64;;;-13.37;73.26
46642;BME280;32370;41.864;-88.124;2022-11-20T09:57:35;100027.72;;;-12.99;72.94
46642;BME280;32370;41.864;-88.124;2022-11-20T10:00:06;100032.02;;;-13.32;73.15
46642;BME280;32370;41.864;-88.124;2022-11-20T10:02:41;100038.69;;;-13.55;74.18
46642;BME280;32370;41.864;-88.124;2022-11-20T10:05:15;100039.48;;;-14.19;74.76
46642;BME280;32370;41.864;-88.124;2022-11-20T10:07:51;100036.52;;;-13.75;75.33
46642;BME280;32370;41.864;-88.124;2022-11-20T10:10:29;100041.75;;;-13.98;76.07
46642;BME280;32370;41.864;-88.124;2022-11-20T10:13:09;100040.07;;;-13.72;75.43
46642;BME280;32370;41.864;-88.124;2022-11-20T10:15:48;100040.29;;;-13.82;75.69
46642;BME280;32370;41.864;-88.124;2022-11-20T10:18:32;100041.43;;;-13.78;75.84
46642;BME280;32370;41.864;-88.124;2022-11-20T10:21:11;100045.59;;;-13.94;76.44
46642;BME280;32370;41.864;-88.124;2022-11-20T10:23:56;100039.84;;;-13.19;75.76
46642;BME280;32370;41.864;-88.124;2022-11-20T10:26:33;100052.35;;;-13.21;74.51
46642;BME280;32370;41.864;-88.124;2022-11-20T10:29:11;100059.09;;;-13.00;73.84
46642;BME280;32370;41.864;-88.124;2022-11-20T10:31:42;100061.63;;;-12.81;73.54
46642;BME280;32370;41.864;-88.124;2022-11-20T10:34:19;100063.94;;;-12.90;72.96
46642;BME280;32370;41.864;-88.124;2022-11-20T10:36:54;100060.62;;;-12.81;72.06
46642;BME280;32370;41.864;-88.124;2022-11-20T10:39:29;100063.53;;;-12.34;71.39
46642;BME280;32370;41.864;-88.124;2022-11-20T10:42:01;100060.16;;;-12.19;70.72
46642;BME280;32370;41.864;-88.124;2022-11-20T10:44:29;100058.21;;;-12.26;70.16
46642;BME280;32370;41.864;-88.124;2022-11-20T10:46:57;100061.90;;;-12.10;69.67
46642;BME280;32370;41.864;-88.124;2022-11-20T10:49:27;100065.03;;;-13.35;71.03
46642;BME280;32370;41.864;-88.124;2022-11-20T10:52:02;100059.56;;;-13.67;72.53
46642;BME280;32370;41.864;-88.124;2022-11-20T10:54:39;100061.70;;;-13.42;73.16
46642;BME280;32370;41.864;-88.124;2022-11-20T10:57:17;100069.33;;;-13.77;73.32
46642;BME280;32370;41.864;-88.124;2022-11-20T10:59:57;100068.78;;;-13.18;72.80
46642;BME280;32370;41.864;-88.124;2022-11-20T11:02:34;100078.88;;;-13.38;73.27
46642;BME280;32370;41.864;-88.124;2022-11-20T11:05:14;100084.63;;;-13.30;73.13
46642;BME280;32370;41.864;-88.124;2022-11-20T11:07:46;100084.32;;;-13.53;72.90
46642;BME280;32370;41.864;-88.124;2022-11-20T11:10:20;100088.80;;;-13.45;72.93
46642;BME280;32370;41.864;-88.124;2022-11-20T11:12:50;100094.31;;;-13.41;72.69
46642;BME280;32370;41.864;-88.124;2022-11-20T11:15:26;100085.58;;;-12.76;72.04
46642;BME280;32370;41.864;-88.124;2022-11-20T11:17:55;100093.17;;;-13.09;71.87
46642;BME280;32370;41.864;-88.124;2022-11-20T11:20:25;100085.70;;;-12.91;71.75
46642;BME280;32370;41.864;-88.124;2022-11-20T11:22:54;100076.88;;;-13.02;71.45
46642;BME280;32370;41.864;-88.124;2022-11-20T11:25:26;100086.74;;;-13.16;72.33
46642;BME280;32370;41.864;-88.124;2022-11-20T11:27:56;100087.02;;;-13.45;72.80
46642;BME280;32370;41.864;-88.124;2022-11-20T11:30:27;100080.86;;;-13.73;72.96
46642;BME280;32370;41.864;-88.124;2022-11-20T11:33:04;100083.37;;;-13.47;73.40
46642;BME280;32370;41.864;-88.124;2022-11-20T11:35:33;100082.21;;;-12.91;72.05
46642;BME280;32370;41.864;-88.124;2022-11-20T11:38:06;100090.89;;;-12.71;71.62
46642;BME280;32370;41.864;-88.124;2022-11-20T11:40:36;100090.69;;;-12.93;71.36
46642;BME280;32370;41.864;-88.124;2022-11-20T11:43:15;100088.13;;;-13.28;71.86
46642;BME280;32370;41.864;-88.124;2022-11-20T11:45:52;100099.58;;;-13.22;71.73
46642;BME280;32370;41.864;-88.124;2022-11-20T11:48:21;100099.46;;;-12.92;71.95
46642;BME280;32370;41.864;-88.124;2022-11-20T11:50:50;100104.00;;;-12.51;71.07
46642;BME280;32370;41.864;-88.124;2022-11-20T11:53:19;100102.66;;;-13.79;72.74
46642;BME280;32370;41.864;-88.124;2022-11-20T11:55:51;100103.13;;;-13.82;73.60
46642;BME280;32370;41.864;-88.124;2022-11-20T11:58:38;100100.14;;;-13.73;73.86
46642;BME280;32370;41.864;-88.124;2022-11-20T12:01:20;100113.86;;;-13.46;73.42
46642;BME280;32370;41.864;-88.124;2022-11-20T12:03:58;100113.82;;;-13.76;73.44
46642;BME280;32370;41.864;-88.124;2022-11-20T12:06:28;100123.80;;;-13.95;75.02
46642;BME280;32370;41.864;-88.124;2022-11-20T12:09:02;100118.55;;;-13.97;74.86
46642;BME280;32370;41.864;-88.124;2022-11-20T12:11:36;100125.60;;;-13.29;74.66
46642;BME280;32370;41.864;-88.124;2022-11-20T12:14:13;100129.26;;;-13.87;74.60
46642;BME280;32370;41.864;-88.124;2022-11-20T12:16:42;100139.74;;;-14.04;74.63
46642;BME280;32370;41.864;-88.124;2022-11-20T12:19:12;100136.56;;;-13.62;74.75
46642;BME280;32370;41.864;-88.124;2022-11-20T12:21:51;100142.22;;;-13.32;74.23
46642;BME280;32370;41.864;-88.124;2022-11-20T12:24:35;100140.31;;;-13.10;73.28
46642;BME280;32370;41.864;-88.124;2022-11-20T12:27:22;100140.33;;;-13.19;73.20
46642;BME280;32370;41.864;-88.124;2022-11-20T12:29:58;100149.35;;;-13.93;74.15
46642;BME280;32370;41.864;-88.124;2022-11-20T12:32:46;100141.84;;;-13.24;74.03
46642;BME280;32370;41.864;-88.124;2022-11-20T12:35:35;100135.15;;;-13.57;73.99
46642;BME280;32370;41.864;-88.124;2022-11-20T12:39:02;100131.32;;;-13.36;74.38
46642;BME280;32370;41.864;-88.124;2022-11-20T12:41:47;100128.59;;;-13.87;76.09
46642;BME280;32370;41.864;-88.124;2022-11-20T12:44:33;100137.45;;;-13.97;76.29
46642;BME280;32370;41.864;-88.124;2022-11-20T12:47:14;100138.75;;;-13.83;76.67